Time;durP1;ratioP1;P1;durP2;ratioP2;P2;SDS_P1;SDS_P2;PMS_P1;PMS_P2;Temp;Humidity;BMP_temperature;BMP_pressure;BME280_temperature;BME280_humidity;BME280_pressure;Samples;Min_cycle;Max_cycle;Signal;HPM_P1;HPM_P2
2023/07/25 00:02:14;;;;;;;5.40;1.97;;;;;;;15.08;100.00;100035.91;5035060;28;20190;-70
2023/07/25 00:04:39;;;;;;;6.93;2.03;;;;;;;15.19;100.00;100045.00;5040044;28;20574;-70
2023/07/25 00:07:05;;;;;;;7.60;2.03;;;;;;;15.03;100.00;99998.03;5035426;28;20693;-70
2023/07/25 00:09:30;;;;;;;7.10;2.17;;;;;;;15.25;100.00;100029.69;5033386;28;20199;-70
2023/07/25 00:11:56;;;;;;;4.77;1.60;;;;;;;15.18;100.00;100035.25;5032266;28;20192;-70
2023/07/25 00:14:21;;;;;;;10.87;1.80;;;;;;;14.61;100.00;99976.06;5030244;28;20187;-70
2023/07/25 00:16:46;;;;;;;4.03;1.87;;;;;;;15.19;100.00;100025.25;5029929;28;20214;-70
2023/07/25 00:19:12;;;;;;;7.50;1.90;;;;;;;15.09;100.00;100018.63;5028143;28;20187;-70
2023/07/25 00:21:37;;;;;;;5.53;1.77;;;;;;;15.29;100.00;100034.31;5029496;28;20218;-70
2023/07/25 00:24:04;;;;;;;4.87;1.73;;;;;;;14.77;100.00;99979.84;5028485;28;20216;-70
2023/07/25 00:26:29;;;;;;;6.67;1.63;;;;;;;15.07;100.00;100009.16;5029536;28;20593;-70
2023/07/25 00:28:54;;;;;;;5.67;1.70;;;;;;;14.41;100.00;99895.63;5030922;28;20438;-70
2023/07/25 00:31:20;;;;;;;4.20;1.83;;;;;;;15.28;100.00;100031.88;5029404;28;22015;-70
2023/07/25 00:33:45;;;;;;;4.40;1.90;;;;;;;15.18;100.00;99991.22;5032481;28;20204;-70
2023/07/25 00:36:11;;;;;;;3.30;1.43;;;;;;;15.33;100.00;100021.13;5033768;28;20208;-70
2023/07/25 00:38:36;;;;;;;5.17;1.73;;;;;;;13.76;100.00;99819.63;5029482;28;20199;-70
2023/07/25 00:41:01;;;;;;;7.53;1.93;;;;;;;15.18;100.00;100007.41;5031983;28;20192;-70
2023/07/25 00:43:27;;;;;;;3.90;1.60;;;;;;;15.08;100.00;100016.19;5033378;28;20661;-70
2023/07/25 00:45:53;;;;;;;6.70;2.47;;;;;;;14.90;100.00;100012.72;5034041;28;20565;-70
2023/07/25 00:48:18;;;;;;;5.07;2.20;;;;;;;14.89;100.00;100004.84;5032524;28;20751;-70
2023/07/25 00:50:44;;;;;;;6.53;1.90;;;;;;;14.97;100.00;100030.63;5035063;28;20183;-70
2023/07/25 00:53:12;;;;;;;6.93;2.90;;;;;;;14.76;100.00;100000.63;5033615;28;20274;-70
2023/07/25 00:55:37;;;;;;;6.77;1.97;;;;;;;14.72;100.00;100009.44;5031033;28;20455;-70
2023/07/25 00:58:03;;;;;;;4.43;1.60;;;;;;;15.00;100.00;100027.41;5032298;28;21055;-70
2023/07/25 01:00:29;;;;;;;6.87;1.90;;;;;;;14.92;100.00;100029.47;5031729;28;20181;-70
2023/07/25 01:02:54;;;;;;;4.47;2.03;;;;;;;14.68;100.00;100023.44;5030637;28;20191;-70
2023/07/25 01:05:20;;;;;;;8.60;2.07;;;;;;;14.55;100.00;100023.78;5036545;28;20187;-70
2023/07/25 01:07:46;;;;;;;5.17;2.00;;;;;;;14.51;100.00;100033.38;5030400;28;20216;-70
2023/07/25 01:10:14;;;;;;;5.10;1.50;;;;;;;14.54;100.00;100043.72;5035761;28;20802;-70
2023/07/25 01:12:39;;;;;;;5.00;1.80;;;;;;;14.43;100.00;100009.47;5026560;28;20974;-70
2023/07/25 01:15:05;;;;;;;8.43;2.03;;;;;;;14.54;100.00;100053.69;5026811;28;20443;-70
2023/07/25 01:17:31;;;;;;;4.77;2.00;;;;;;;14.34;100.00;100048.72;5030629;28;20199;-70
2023/07/25 01:19:57;;;;;;;5.70;1.90;;;;;;;14.44;100.00;100049.72;5025829;28;20454;-70
2023/07/25 01:22:26;;;;;;;7.00;1.93;;;;;;;14.53;100.00;100047.47;5027891;28;20210;-70
2023/07/25 01:24:54;;;;;;;4.70;1.57;;;;;;;14.46;100.00;100054.84;5029478;28;20460;-70
2023/07/25 01:29:55;;;;;;;7.50;2.23;;;;;;;11.83;100.00;99645.34;5260210;23;20628;-85
2023/07/25 01:32:20;;;;;;;6.80;1.80;;;;;;;12.53;100.00;99803.03;4993002;28;20444;-83
2023/07/25 01:34:46;;;;;;;4.77;1.40;;;;;;;13.38;100.00;99879.59;4983959;28;20540;-86
2023/07/25 01:37:11;;;;;;;3.50;1.73;;;;;;;14.00;100.00;100025.22;4988847;28;20201;-85
2023/07/25 01:39:37;;;;;;;7.20;2.03;;;;;;;14.35;100.00;100042.25;4977528;28;20573;-82
2023/07/25 01:42:02;;;;;;;5.20;1.70;;;;;;;13.86;100.00;100025.75;4968771;28;20193;-86
2023/07/25 01:44:28;;;;;;;6.20;2.00;;;;;;;14.24;100.00;100071.75;4966842;28;20198;-85
2023/07/25 01:46:56;;;;;;;5.70;1.63;;;;;;;13.73;100.00;100078.03;4970008;28;20702;-84
2023/07/25 01:49:21;;;;;;;5.50;1.47;;;;;;;12.62;100.00;99946.06;4971526;28;20592;-83
2023/07/25 01:51:47;;;;;;;3.20;1.37;;;;;;;13.91;100.00;100085.13;4966397;28;20455;-83
2023/07/25 01:54:12;;;;;;;5.20;1.97;;;;;;;13.78;100.00;100052.00;4968505;28;20194;-85
2023/07/25 01:56:37;;;;;;;4.50;1.50;;;;;;;13.11;100.00;99942.03;4969082;28;20186;-85
2023/07/25 01:59:03;;;;;;;3.97;1.67;;;;;;;14.02;100.00;100087.78;4966926;28;20210;-82
2023/07/25 02:01:29;;;;;;;7.17;1.70;;;;;;;14.01;100.00;100090.72;4961089;28;20201;-83
2023/07/25 02:03:54;;;;;;;8.87;1.87;;;;;;;13.77;100.00;100041.47;4969029;28;20705;-82
2023/07/25 02:06:20;;;;;;;4.67;1.33;;;;;;;13.49;100.00;100037.66;4965510;28;20682;-85
2023/07/25 02:08:45;;;;;;;3.20;1.77;;;;;;;13.74;100.00;100042.75;4966272;28;20214;-85
2023/07/25 02:11:11;;;;;;;4.80;1.50;;;;;;;13.94;100.00;100074.69;4965684;28;20963;-85
2023/07/25 02:13:36;;;;;;;5.23;2.00;;;;;;;13.40;100.00;100055.25;4966498;28;20244;-86
2023/07/25 02:16:01;;;;;;;4.10;1.40;;;;;;;13.27;100.00;100036.63;4968471;28;20676;-85
2023/07/25 02:18:27;;;;;;;6.17;1.60;;;;;;;13.80;100.00;100097.59;4965318;28;20547;-85
2023/07/25 02:20:52;;;;;;;3.33;1.60;;;;;;;13.79;100.00;100090.53;4968257;28;20194;-85
2023/07/25 02:23:18;;;;;;;5.30;1.47;;;;;;;13.89;100.00;100100.75;4966719;28;20209;-84
2023/07/25 02:25:45;;;;;;;3.97;1.50;;;;;;;13.98;100.00;100093.91;4963172;28;20357;-83
2023/07/25 02:28:11;;;;;;;6.43;2.00;;;;;;;13.67;100.00;100055.53;4969247;28;20239;-85
2023/07/25 02:30:36;;;;;;;7.50;2.10;;;;;;;13.73;100.00;100113.06;4969103;28;20449;-83
2023/07/25 02:33:02;;;;;;;4.17;1.67;;;;;;;13.05;100.00;99998.72;4966550;28;20247;-85
2023/07/25 02:35:27;;;;;;;4.77;2.17;;;;;;;13.65;100.00;100065.72;4967836;28;20631;-83
2023/07/25 02:37:53;;;;;;;3.70;1.50;;;;;;;13.72;100.00;100077.22;4965566;28;20193;-84
2023/07/25 02:40:18;;;;;;;7.97;2.17;;;;;;;13.83;100.00;100117.84;4966256;28;20249;-85
2023/07/25 02:42:44;;;;;;;5.27;2.10;;;;;;;14.10;100.00;100121.66;4973993;28;20195;-80
2023/07/25 02:45:09;;;;;;;6.83;1.87;;;;;;;13.93;100.00;100104.59;4968361;28;20254;-79
2023/07/25 02:47:35;;;;;;;4.93;1.80;;;;;;;13.87;100.00;100111.75;4968990;28;20351;-81
2023/07/25 02:50:00;;;;;;;5.43;1.50;;;;;;;13.69;100.00;100088.47;4970649;28;20466;-78
2023/07/25 02:52:26;;;;;;;5.03;2.07;;;;;;;13.77;100.00;100095.38;4969841;28;20198;-79
2023/07/25 02:54:51;;;;;;;7.90;1.83;;;;;;;14.20;100.00;100118.31;4967467;28;20218;-79
2023/07/25 02:57:16;;;;;;;4.87;2.10;;;;;;;13.62;100.00;100130.88;4967574;28;20268;-78
2023/07/25 02:59:42;;;;;;;3.97;1.73;;;;;;;13.60;100.00;100049.47;4963764;28;20214;-83
2023/07/25 03:02:09;;;;;;;5.77;2.07;;;;;;;14.15;100.00;100119.06;4972925;28;20655;-79
2023/07/25 03:04:34;;;;;;;5.07;2.00;;;;;;;14.19;100.00;100128.28;4965653;28;20217;-79
2023/07/25 03:07:00;;;;;;;7.40;2.50;;;;;;;14.03;100.00;100096.72;4967290;28;20481;-83
2023/07/25 03:09:25;;;;;;;7.77;2.00;;;;;;;14.39;100.00;100137.84;4970051;28;20214;-82
2023/07/25 03:11:51;;;;;;;6.53;2.53;;;;;;;14.45;100.00;100144.97;4968654;28;20248;-80
2023/07/25 03:14:16;;;;;;;3.67;2.23;;;;;;;13.60;100.00;100051.31;4968177;28;20196;-79
2023/07/25 03:16:41;;;;;;;4.77;2.67;;;;;;;13.45;100.00;100041.06;4972377;28;20193;-78
2023/07/25 03:19:07;;;;;;;8.07;2.80;;;;;;;13.47;100.00;100076.66;4970643;28;20218;-85
2023/07/25 03:21:32;;;;;;;6.73;2.30;;;;;;;13.99;100.00;100141.38;4970004;28;20268;-85
2023/07/25 03:23:58;;;;;;;6.63;2.53;;;;;;;14.06;100.00;100150.16;4970649;28;20285;-81
2023/07/25 03:26:23;;;;;;;7.30;2.50;;;;;;;13.37;100.00;100030.66;4968956;28;20828;-82
2023/07/25 03:28:48;;;;;;;4.03;2.03;;;;;;;14.06;100.00;100160.94;4972359;28;20222;-78
2023/07/25 03:31:14;;;;;;;4.03;2.30;;;;;;;14.16;100.00;100163.03;4972019;28;20571;-81
2023/07/25 03:33:39;;;;;;;4.20;2.10;;;;;;;13.30;100.00;100072.00;4974176;28;20685;-79
2023/07/25 03:36:07;;;;;;;6.20;2.50;;;;;;;12.94;100.00;100034.53;4971299;28;20186;-81
2023/07/25 03:38:32;;;;;;;6.47;2.90;;;;;;;13.79;100.00;100169.53;4969052;28;21190;-78
2023/07/25 03:40:58;;;;;;;8.40;3.07;;;;;;;13.66;100.00;100193.22;4968607;28;20448;-83
2023/07/25 03:43:24;;;;;;;6.70;2.63;;;;;;;13.95;100.00;100202.22;4966331;28;20237;-82
2023/07/25 03:45:49;;;;;;;6.80;2.80;;;;;;;13.88;100.00;100212.31;4969416;28;20193;-80
2023/07/25 03:48:15;;;;;;;8.77;2.70;;;;;;;13.82;100.00;100197.88;4968544;28;20960;-81
2023/07/25 03:50:40;;;;;;;5.87;2.50;;;;;;;13.89;100.00;100219.34;4966951;28;20263;-81
2023/07/25 03:53:06;;;;;;;6.73;2.40;;;;;;;14.06;100.00;100235.59;4974197;28;20582;-78
2023/07/25 03:55:31;;;;;;;5.03;2.37;;;;;;;13.66;100.00;100166.28;4970519;28;20193;-80
2023/07/25 03:57:57;;;;;;;5.90;2.63;;;;;;;14.10;100.00;100242.19;4971007;28;20197;-81
2023/07/25 04:00:22;;;;;;;3.87;2.27;;;;;;;13.39;100.00;100155.94;4972278;28;20206;-84
2023/07/25 04:02:48;;;;;;;3.23;2.07;;;;;;;13.72;100.00;100255.09;4968015;28;20677;-83
2023/07/25 04:05:14;;;;;;;4.13;2.30;;;;;;;13.99;100.00;100260.81;4971575;28;20669;-84
2023/07/25 04:07:40;;;;;;;2.60;2.00;;;;;;;14.03;100.00;100231.53;4971411;28;20297;-81
2023/07/25 04:10:06;;;;;;;5.50;2.53;;;;;;;14.31;100.00;100281.19;4971066;28;20548;-81
2023/07/25 04:12:31;;;;;;;5.23;2.23;;;;;;;14.07;100.00;100210.31;4970228;28;20218;-84
2023/07/25 04:14:57;;;;;;;5.97;2.07;;;;;;;13.82;100.00;100213.25;4967694;28;20206;-80
2023/07/25 04:17:23;;;;;;;5.07;1.73;;;;;;;13.59;100.00;100149.41;4972257;28;20197;-79
2023/07/25 04:19:49;;;;;;;8.77;1.67;;;;;;;13.74;100.00;100155.13;4973393;28;20465;-78
2023/07/25 04:22:14;;;;;;;3.80;1.60;;;;;;;14.48;100.00;100271.31;4971075;28;20197;-77
2023/07/25 04:24:39;;;;;;;5.23;1.30;;;;;;;14.71;100.00;100258.84;4964741;28;20198;-79
2023/07/25 04:27:05;;;;;;;4.90;1.70;;;;;;;14.72;100.00;100245.09;4967539;28;20673;-77
2023/07/25 04:29:30;;;;;;;3.93;1.60;;;;;;;14.72;100.00;100246.97;4966784;28;20217;-80
2023/07/25 04:31:56;;;;;;;4.47;1.90;;;;;;;13.97;100.00;100146.16;4964820;28;20194;-83
2023/07/25 04:34:21;;;;;;;5.63;1.70;;;;;;;14.07;100.00;100138.31;4970880;28;20269;-80
2023/07/25 04:36:47;;;;;;;3.90;1.27;;;;;;;14.52;100.00;100191.53;4969124;28;20349;-82
2023/07/25 04:39:12;;;;;;;7.70;1.77;;;;;;;14.58;100.00;100179.81;4970448;28;20217;-80
2023/07/25 04:41:38;;;;;;;4.97;1.97;;;;;;;14.72;100.00;100217.28;4972104;28;20193;-82
2023/07/25 04:44:03;;;;;;;5.83;2.00;;;;;;;13.91;100.00;100077.84;4967153;28;20729;-82
2023/07/25 04:46:30;;;;;;;6.10;1.73;;;;;;;14.80;100.00;100214.19;4969252;28;20689;-81
2023/07/25 04:48:56;;;;;;;6.40;1.70;;;;;;;14.01;100.00;100096.13;4967381;28;20222;-84
2023/07/25 04:51:21;;;;;;;4.23;1.57;;;;;;;13.83;100.00;100080.09;4965290;28;20495;-80
2023/07/25 04:53:53;;;;;;;3.80;1.37;;;;;;;14.62;100.00;100188.22;4968009;28;20463;-84
2023/07/25 04:56:19;;;;;;;4.53;1.87;;;;;;;14.80;100.00;100206.09;4981542;28;20252;-85
2023/07/25 04:58:44;;;;;;;6.53;1.97;;;;;;;14.31;100.00;100116.66;4971296;28;20795;-82
2023/07/25 05:01:10;;;;;;;5.47;1.53;;;;;;;14.84;100.00;100207.25;4972912;28;20708;-85
2023/07/25 05:03:35;;;;;;;6.10;2.33;;;;;;;14.69;100.00;100173.53;4968668;28;20240;-86
2023/07/25 05:06:01;;;;;;;4.17;1.43;;;;;;;14.27;100.00;100104.72;4971383;28;20194;-86
2023/07/25 05:08:27;;;;;;;4.10;1.73;;;;;;;14.99;100.00;100218.34;4969824;28;20222;-85
2023/07/25 05:10:53;;;;;;;10.13;1.80;;;;;;;14.73;100.00;100167.66;4972265;28;20233;-86
2023/07/25 05:13:19;;;;;;;3.97;1.50;;;;;;;14.61;100.00;100146.94;4968850;28;20684;-84
2023/07/25 05:15:44;;;;;;;3.83;1.37;;;;;;;15.02;100.00;100190.03;4958786;28;20445;-86
2023/07/25 05:18:10;;;;;;;4.03;1.50;;;;;;;14.65;100.00;100145.38;4972526;28;20182;-86
2023/07/25 05:20:35;;;;;;;6.03;2.00;;;;;;;15.04;100.00;100187.88;4972828;28;20567;-86
2023/07/25 05:23:01;;;;;;;2.90;1.30;;;;;;;15.08;100.00;100181.78;4974338;28;20197;-85
2023/07/25 05:25:26;;;;;;;4.50;1.40;;;;;;;14.78;100.00;100132.63;4971374;28;20186;-85
2023/07/25 05:27:52;;;;;;;4.60;1.20;;;;;;;14.99;100.00;100167.03;4969462;28;20217;-85
2023/07/25 05:30:17;;;;;;;5.37;1.67;;;;;;;15.13;100.00;100154.03;4971953;28;20221;-86
2023/07/25 05:32:43;;;;;;;4.77;1.57;;;;;;;14.86;100.00;100114.16;4971867;28;20190;-86
2023/07/25 05:35:08;;;;;;;5.43;1.47;;;;;;;14.29;100.00;100037.84;4972401;28;20201;-87
2023/07/25 05:37:38;;;;;;;4.03;1.33;;;;;;;15.09;100.00;100153.69;4973311;28;20607;-88
2023/07/25 05:40:05;;;;;;;3.60;1.60;;;;;;;14.32;100.00;100097.53;4976120;28;20202;-88
2023/07/25 05:42:31;;;;;;;4.53;1.73;;;;;;;14.89;100.00;100099.34;4975244;28;20520;-86
2023/07/25 05:44:59;;;;;;;4.73;1.53;;;;;;;14.58;100.00;100041.31;4974239;28;20421;-86
2023/07/25 05:47:25;;;;;;;7.27;1.20;;;;;;;14.74;100.00;100058.59;4972119;28;20530;-86
2023/07/25 05:49:51;;;;;;;2.90;1.13;;;;;;;15.25;100.00;100113.44;4966627;28;20548;-86
2023/07/25 05:52:16;;;;;;;3.10;1.30;;;;;;;15.10;100.00;100079.72;4970270;28;20190;-85
2023/07/25 05:54:43;;;;;;;8.43;1.60;;;;;;;15.58;100.00;100109.84;4969597;28;20194;-85
2023/07/25 05:57:08;;;;;;;4.60;1.50;;;;;;;15.31;100.00;100070.00;4969577;28;20221;-88
2023/07/25 05:59:34;;;;;;;4.17;1.17;;;;;;;15.61;100.00;100112.03;4966449;28;20480;-85
2023/07/25 06:01:59;;;;;;;4.57;1.40;;;;;;;15.60;100.00;100105.00;4968196;28;20308;-86
2023/07/25 06:04:24;;;;;;;6.40;1.50;;;;;;;15.33;100.00;100035.47;4969129;28;20273;-85
2023/07/25 06:06:50;;;;;;;3.70;1.10;;;;;;;15.74;100.00;100090.09;4966660;28;20222;-87
2023/07/25 06:09:15;;;;;;;7.20;1.73;;;;;;;15.36;100.00;100034.97;4972074;28;20645;-86
2023/07/25 06:11:41;;;;;;;7.60;1.60;;;;;;;15.54;100.00;100070.88;4973182;28;20190;-86
2023/07/25 06:14:06;;;;;;;3.03;1.07;;;;;;;15.45;100.00;100043.47;4973420;28;20273;-85
2023/07/25 06:16:32;;;;;;;4.80;1.40;;;;;;;15.54;100.00;100090.59;4974054;28;20194;-88
2023/07/25 06:18:57;;;;;;;3.00;1.33;;;;;;;14.98;100.00;99986.34;4968767;28;20277;-88
2023/07/25 06:21:22;;;;;;;3.87;1.40;;;;;;;14.98;100.00;99994.44;4970637;28;20212;-88
2023/07/25 06:23:48;;;;;;;6.63;1.80;;;;;;;15.64;100.00;100097.22;4970310;28;20194;-86
2023/07/25 06:26:14;;;;;;;5.30;1.43;;;;;;;14.87;100.00;100001.59;4970395;28;20710;-87
2023/07/25 06:28:40;;;;;;;4.40;1.30;;;;;;;15.47;100.00;100079.13;4971432;28;20589;-89
2023/07/25 06:31:05;;;;;;;4.67;1.67;;;;;;;15.45;100.00;100078.59;4968781;28;20252;-85
2023/07/25 06:33:31;;;;;;;5.20;1.77;;;;;;;15.65;100.00;100107.78;4971019;28;21030;-87
2023/07/25 06:35:57;;;;;;;3.73;1.20;;;;;;;15.38;100.00;100061.72;4971088;28;20620;-86
2023/07/25 06:38:22;;;;;;;9.50;1.77;;;;;;;15.22;100.00;100022.06;4971358;28;20461;-87
2023/07/25 06:40:48;;;;;;;6.33;1.10;;;;;;;15.74;100.00;100083.88;4970322;28;20194;-87
2023/07/25 06:43:13;;;;;;;5.27;1.40;;;;;;;15.80;100.00;100096.38;4974008;28;20552;-88
2023/07/25 06:45:39;;;;;;;4.40;1.20;;;;;;;15.79;100.00;100092.03;4974570;28;20190;-87
2023/07/25 06:48:04;;;;;;;8.13;1.40;;;;;;;15.79;100.00;100083.91;4970637;28;20813;-87
2023/07/25 06:50:32;;;;;;;3.87;1.33;;;;;;;15.20;100.00;100006.09;4974311;28;20761;-88
2023/07/25 06:52:58;;;;;;;4.40;1.20;;;;;;;15.81;100.00;100098.00;4973500;28;20626;-88
2023/07/25 06:55:23;;;;;;;9.77;1.70;;;;;;;15.95;100.00;100093.03;4979094;28;20437;-86
2023/07/25 06:57:49;;;;;;;6.77;2.10;;;;;;;15.82;100.00;100068.03;4972512;28;20186;-86
2023/07/25 07:00:14;;;;;;;6.00;1.43;;;;;;;15.48;100.00;100002.41;4967581;28;20224;-87
2023/07/25 07:02:41;;;;;;;2.73;0.97;;;;;;;15.36;100.00;100017.91;4971892;28;20201;-86
2023/07/25 07:05:06;;;;;;;5.30;1.37;;;;;;;16.09;100.00;100107.81;4979547;28;20247;-86
2023/07/25 07:07:33;;;;;;;4.97;1.20;;;;;;;15.84;100.00;100056.13;4971215;28;20480;-90
2023/07/25 07:09:58;;;;;;;4.30;1.40;;;;;;;16.10;100.00;100101.31;4974045;28;20217;-90
2023/07/25 07:12:24;;;;;;;3.17;1.00;;;;;;;16.06;100.00;100129.16;4976069;28;20441;-92
2023/07/25 07:14:50;;;;;;;5.93;1.20;;;;;;;15.86;100.00;100064.81;4979238;28;20358;-89
2023/07/25 07:17:15;;;;;;;3.23;1.23;;;;;;;16.21;100.00;100124.72;4974037;28;20209;-89
2023/07/25 07:19:41;;;;;;;3.67;1.10;;;;;;;15.25;100.00;99959.44;4973811;28;20568;-88
2023/07/25 07:22:06;;;;;;;3.67;1.10;;;;;;;15.76;100.00;100039.25;4972856;28;20182;-91
2023/07/25 07:24:32;;;;;;;4.70;1.30;;;;;;;16.23;100.00;100124.47;4975615;28;20198;-91
2023/07/25 07:26:57;;;;;;;5.10;1.33;;;;;;;16.26;100.00;100126.69;4969701;28;20257;-90
2023/07/25 07:29:23;;;;;;;4.33;1.20;;;;;;;16.05;100.00;100103.97;4974927;28;20218;-91
2023/07/25 07:31:48;;;;;;;6.03;1.50;;;;;;;16.20;100.00;100125.81;4975828;28;20202;-88
2023/07/25 07:34:16;;;;;;;4.20;1.00;;;;;;;16.05;100.00;100136.41;4974757;28;20610;-88
2023/07/25 07:36:43;;;;;;;6.77;1.30;;;;;;;15.87;100.00;100115.09;4972863;28;20677;-91
2023/07/25 07:39:08;;;;;;;4.53;1.20;;;;;;;16.16;100.00;100140.88;4972263;28;20480;-88
2023/07/25 07:41:35;;;;;;;4.40;1.20;;;;;;;15.51;100.00;100039.75;4974544;28;20449;-89
2023/07/25 07:44:00;;;;;;;4.20;1.27;;;;;;;16.15;100.00;100163.63;4977405;28;20186;-90
2023/07/25 07:46:29;;;;;;;3.87;1.20;;;;;;;16.26;100.00;100156.44;4973376;28;20540;-91
2023/07/25 07:48:54;;;;;;;4.60;1.27;;;;;;;16.15;100.00;100141.16;4972703;28;20221;-90
2023/07/25 07:51:19;;;;;;;3.00;0.90;;;;;;;16.30;100.00;100118.88;4970632;28;20444;-88
2023/07/25 07:53:45;;;;;;;6.30;1.50;;;;;;;15.78;100.00;100033.63;4969910;28;20551;-86
2023/07/25 07:56:12;;;;;;;3.20;1.20;;;;;;;16.18;100.00;100114.41;4973802;28;20210;-89
2023/07/25 07:58:37;;;;;;;3.57;1.13;;;;;;;16.35;100.00;100146.81;4971864;28;20788;-89
2023/07/25 08:01:03;;;;;;;3.90;1.17;;;;;;;16.17;100.00;100107.38;4972517;28;20453;-86
2023/07/25 08:03:28;;;;;;;4.83;1.20;;;;;;;16.20;100.00;100057.31;4973278;28;20766;-90
2023/07/25 08:05:57;;;;;;;3.73;1.00;;;;;;;16.44;100.00;100072.19;4971402;28;20193;-88
2023/07/25 08:08:23;;;;;;;3.50;1.03;;;;;;;16.62;100.00;100140.56;4970201;28;20281;-87
2023/07/25 08:10:48;;;;;;;7.33;1.77;;;;;;;15.85;100.00;100014.47;4967851;28;20449;-87
2023/07/25 08:13:13;;;;;;;5.50;1.37;;;;;;;16.30;100.00;100053.91;4974113;28;20650;-89
2023/07/25 08:15:39;;;;;;;4.07;1.83;;;;;;;16.60;100.00;100097.50;4972414;28;21143;-88
2023/07/25 08:18:04;;;;;;;4.23;1.10;;;;;;;16.71;100.00;100096.53;4972727;28;20692;-88
2023/07/25 08:20:30;;;;;;;2.07;1.00;;;;;;;17.14;100.00;100139.97;4971983;28;20214;-87
2023/07/25 08:22:55;;;;;;;5.47;1.40;;;;;;;16.17;100.00;100004.56;4974143;28;20205;-86
2023/07/25 08:25:21;;;;;;;6.40;1.50;;;;;;;17.02;100.00;100161.03;4965177;28;20344;-86
2023/07/25 08:27:46;;;;;;;6.17;1.50;;;;;;;16.57;100.00;100121.56;4970640;28;20221;-88
2023/07/25 08:30:12;;;;;;;7.00;1.40;;;;;;;16.85;100.00;100199.88;4974327;28;20221;-86
2023/07/25 08:32:38;;;;;;;6.27;1.20;;;;;;;16.96;100.00;100203.50;4977474;28;20201;-88
2023/07/25 08:35:04;;;;;;;3.70;1.00;;;;;;;16.73;100.00;100183.75;4971843;28;20452;-88
2023/07/25 08:37:29;;;;;;;2.80;0.93;;;;;;;16.66;100.00;100150.66;4972259;28;20646;-86
2023/07/25 08:39:55;;;;;;;2.23;1.07;;;;;;;16.76;100.00;100177.03;4969065;28;20352;-85
2023/07/25 08:42:25;;;;;;;4.30;1.10;;;;;;;16.48;100.00;100159.91;4971565;28;20224;-86
2023/07/25 08:44:52;;;;;;;5.20;0.87;;;;;;;16.96;100.00;100214.34;4970008;28;20198;-89
2023/07/25 08:47:26;;;;;;;3.40;1.30;;;;;;;16.63;100.00;100144.91;4976446;28;20951;-87
2023/07/25 08:49:55;;;;;;;4.10;1.00;;;;;;;16.87;100.00;100192.31;4971363;28;20532;-87
2023/07/25 08:52:24;;;;;;;4.00;0.90;;;;;;;17.16;100.00;100227.25;4974471;28;20469;-87
2023/07/25 08:54:50;;;;;;;3.97;0.90;;;;;;;16.36;100.00;100126.78;4974763;28;20957;-86
2023/07/25 08:57:18;;;;;;;5.73;1.10;;;;;;;16.99;100.00;100261.78;4970695;28;20440;-86
2023/07/25 08:59:46;;;;;;;4.37;1.20;;;;;;;16.98;100.00;100325.13;4968996;28;20213;-87
2023/07/25 09:02:12;;;;;;;3.27;1.00;;;;;;;17.15;100.00;100535.38;4967764;28;21159;-88
2023/07/25 09:04:38;;;;;;;2.93;1.20;;;;;;;17.01;100.00;100433.00;4970028;28;20507;-87
2023/07/25 09:07:05;;;;;;;3.13;1.03;;;;;;;17.07;100.00;100404.94;4971320;28;20565;-88
2023/07/25 09:09:31;;;;;;;2.87;0.97;;;;;;;16.69;100.00;100299.06;4970005;28;20476;-90
2023/07/25 09:11:57;;;;;;;2.03;0.77;;;;;;;17.21;100.00;100373.63;4973796;28;20461;-88
2023/07/25 09:14:23;;;;;;;3.27;1.10;;;;;;;17.14;100.00;100424.50;4977520;28;20381;-90
2023/07/25 09:16:48;;;;;;;4.17;1.10;;;;;;;16.70;100.00;100395.47;4972674;28;20540;-90
2023/07/25 09:19:14;;;;;;;3.50;1.00;;;;;;;17.10;100.00;100464.03;4968955;28;20683;-87
2023/07/25 09:21:57;;;;;;;1.90;0.80;;;;;;;17.11;100.00;100471.09;4973602;28;20206;-90
2023/07/25 09:24:23;;;;;;;4.67;1.20;;;;;;;16.39;100.00;100386.09;4975438;28;20661;-90
2023/07/25 09:26:52;;;;;;;5.17;1.00;;;;;;;16.66;100.00;100375.41;4979382;28;20477;-91
2023/07/25 09:29:27;;;;;;;3.23;1.03;;;;;;;17.28;100.00;100496.25;4975648;28;20253;-92
2023/07/25 09:31:53;;;;;;;2.00;1.00;;;;;;;16.36;100.00;100402.00;4979681;28;20440;-91
2023/07/25 09:34:23;;;;;;;4.10;1.10;;;;;;;17.04;100.00;100459.59;4975669;28;20456;-92
2023/07/25 09:36:49;;;;;;;2.57;0.80;;;;;;;17.39;100.00;100505.34;4971051;28;20564;-91
2023/07/25 09:39:17;;;;;;;3.60;1.10;;;;;;;17.14;100.00;100506.63;4971935;28;20848;-89
2023/07/25 09:41:45;;;;;;;2.97;1.03;;;;;;;17.20;100.00;100510.22;4970659;28;20977;-89
2023/07/25 09:44:11;;;;;;;4.00;1.30;;;;;;;16.79;100.00;100400.50;4967025;28;20453;-87
2023/07/25 09:46:37;;;;;;;6.70;1.30;;;;;;;16.65;100.00;100397.28;4966510;28;20527;-88
2023/07/25 09:49:02;;;;;;;5.43;1.00;;;;;;;17.36;100.00;100503.94;4969637;28;20509;-87
2023/07/25 09:51:27;;;;;;;3.63;1.00;;;;;;;16.79;100.00;100397.78;4970858;28;20186;-86
2023/07/25 09:53:54;;;;;;;2.10;0.90;;;;;;;17.47;100.00;100504.88;4967001;28;20194;-89
2023/07/25 09:56:24;;;;;;;3.57;1.07;;;;;;;17.44;100.00;100477.44;4967339;28;20206;-89
2023/07/25 09:58:51;;;;;;;4.00;1.20;;;;;;;17.11;100.00;100422.31;4967247;28;20457;-88
2023/07/25 10:01:17;;;;;;;6.40;1.20;;;;;;;17.50;100.00;100523.38;4969198;28;20445;-92
2023/07/25 10:03:43;;;;;;;4.67;1.20;;;;;;;16.92;100.00;100425.34;4968077;28;20472;-89
2023/07/25 10:06:10;;;;;;;3.00;1.00;;;;;;;17.79;100.00;100529.44;4971943;28;20452;-90
2023/07/25 10:08:38;;;;;;;4.50;1.20;;;;;;;17.53;100.00;100511.16;4971025;28;20465;-89
2023/07/25 10:11:04;;;;;;;2.00;0.90;;;;;;;17.85;100.00;100511.31;4973989;28;20442;-89
2023/07/25 10:13:32;;;;;;;8.17;1.67;;;;;;;17.20;100.00;100442.47;4968304;28;20518;-91
2023/07/25 10:16:00;;;;;;;4.70;1.10;;;;;;;17.23;100.00;100488.03;4970138;28;21029;-90
2023/07/25 10:18:27;;;;;;;4.50;1.17;;;;;;;17.68;100.00;100545.81;4969999;28;20824;-96
2023/07/25 10:20:54;;;;;;;6.07;1.10;;;;;;;17.45;100.00;100539.56;4968053;28;20460;-89
2023/07/25 10:23:29;;;;;;;2.77;1.03;;;;;;;17.48;100.00;100546.38;4975288;28;20449;-91
2023/07/25 10:25:55;;;;;;;3.37;1.03;;;;;;;17.58;100.00;100522.91;4984649;28;20448;-89
2023/07/25 10:28:24;;;;;;;3.67;1.13;;;;;;;17.35;100.00;100505.00;4971717;28;20469;-87
2023/07/25 10:30:52;;;;;;;3.57;1.10;;;;;;;17.13;100.00;100517.72;4976959;28;20214;-89
2023/07/25 10:33:18;;;;;;;3.07;0.90;;;;;;;16.88;100.00;100435.00;4975429;28;20457;-91
2023/07/25 10:35:54;;;;;;;1.73;0.70;;;;;;;17.75;100.00;100535.59;4977592;28;20452;-90
2023/07/25 10:38:20;;;;;;;3.07;1.10;;;;;;;17.60;100.00;100538.94;4972523;28;20175;-88
2023/07/25 10:40:57;;;;;;;6.07;1.47;;;;;;;17.71;100.00;100543.41;4975394;28;20445;-93
2023/07/25 10:43:53;;;;;;;3.40;0.90;;;;;;;18.01;100.00;100540.25;4983130;28;20444;-93
2023/07/25 10:46:20;;;;;;;3.50;1.07;;;;;;;18.22;100.00;100554.03;4989127;28;20453;-93
2023/07/25 10:48:47;;;;;;;5.53;1.13;;;;;;;17.97;100.00;100541.03;4993703;28;20560;-93
2023/07/25 10:51:15;;;;;;;2.43;0.90;;;;;;;18.16;100.00;100553.16;4977002;28;20445;-94
2023/07/25 10:54:01;;;;;;;2.17;1.00;;;;;;;18.16;100.00;100542.28;4979893;28;20444;-92
2023/07/25 10:56:27;;;;;;;3.37;1.00;;;;;;;18.10;100.00;100558.78;4982422;28;20446;-88
2023/07/25 10:59:12;;;;;;;1.97;0.80;;;;;;;18.03;100.00;100572.56;4977232;28;22489;-94
2023/07/25 11:01:43;;;;;;;2.90;0.90;;;;;;;17.96;100.00;100570.03;4978833;28;20513;-91
2023/07/25 11:04:25;;;;;;;4.13;1.27;;;;;;;17.37;100.00;100502.84;4977370;28;20812;-93
2023/07/25 11:06:53;;;;;;;5.00;1.10;;;;;;;17.95;100.00;100562.16;4987077;28;21015;-94
2023/07/25 11:09:20;;;;;;;4.73;0.90;;;;;;;18.16;100.00;100564.00;4977859;28;20492;-91
2023/07/25 11:11:48;;;;;;;4.23;1.00;;;;;;;17.88;100.00;100523.53;4974586;28;20968;-88
2023/07/25 11:14:15;;;;;;;3.90;0.90;;;;;;;18.08;100.00;100559.06;4979660;28;21837;-93
2023/07/25 11:16:42;;;;;;;3.30;1.07;;;;;;;18.11;100.00;100563.97;4978426;28;20433;-92